sensor_id;sensor_type;location;lat;lon;timestamp;temperature;humidity
15083;DHT22;7640;53.116;6.878;2023-04-24T00:01:22;12.20;99.90
15083;DHT22;7640;53.116;6.878;2023-04-24T00:03:52;12.20;99.90
15083;DHT22;7640;53.116;6.878;2023-04-24T00:06:21;12.10;99.90
15083;DHT22;7640;53.116;6.878;2023-04-24T00:08:51;12.10;99.90
15083;DHT22;7640;53.116;6.878;2023-04-24T00:11:19;12.00;99.90
15083;DHT22;7640;53.116;6.878;2023-04-24T00:13:48;12.00;99.90
15083;DHT22;7640;53.116;6.878;2023-04-24T00:16:16;11.90;99.90
15083;DHT22;7640;53.116;6.878;2023-04-24T00:18:45;11.90;99.90
15083;DHT22;7640;53.116;6.878;2023-04-24T00:21:16;11.80;99.90
15083;DHT22;7640;53.116;6.878;2023-04-24T00:23:45;11.80;99.90
15083;DHT22;7640;53.116;6.878;2023-04-24T00:26:13;11.80;99.90
15083;DHT22;7640;53.116;6.878;2023-04-24T00:28:42;11.80;99.90
15083;DHT22;7640;53.116;6.878;2023-04-24T00:31:10;11.70;99.90
15083;DHT22;7640;53.116;6.878;2023-04-24T00:33:39;11.70;99.90
15083;DHT22;7640;53.116;6.878;2023-04-24T00:36:08;11.60;99.90
15083;DHT22;7640;53.116;6.878;2023-04-24T00:38:38;11.60;99.90
15083;DHT22;7640;53.116;6.878;2023-04-24T00:41:07;11.50;99.90
15083;DHT22;7640;53.116;6.878;2023-04-24T00:43:35;11.50;99.90
15083;DHT22;7640;53.116;6.878;2023-04-24T00:46:04;11.50;99.90
15083;DHT22;7640;53.116;6.878;2023-04-24T00:48:33;11.50;99.90
15083;DHT22;7640;53.116;6.878;2023-04-24T00:51:01;11.50;99.90
15083;DHT22;7640;53.116;6.878;2023-04-24T00:53:30;11.50;99.90
15083;DHT22;7640;53.116;6.878;2023-04-24T00:56:01;11.50;99.90
15083;DHT22;7640;53.116;6.878;2023-04-24T00:58:30;11.50;99.90
15083;DHT22;7640;53.116;6.878;2023-04-24T01:00:59;11.50;99.90
15083;DHT22;7640;53.116;6.878;2023-04-24T01:03:30;11.50;99.90
15083;DHT22;7640;53.116;6.878;2023-04-24T01:05:59;11.50;99.90
15083;DHT22;7640;53.116;6.878;2023-04-24T01:08:28;11.50;99.90
15083;DHT22;7640;53.116;6.878;2023-04-24T01:10:57;11.50;99.90
15083;DHT22;7640;53.116;6.878;2023-04-24T01:13:27;11.50;99.90
15083;DHT22;7640;53.116;6.878;2023-04-24T01:15:56;11.50;99.90
15083;DHT22;7640;53.116;6.878;2023-04-24T01:18:25;11.50;99.90
15083;DHT22;7640;53.116;6.878;2023-04-24T01:20:57;11.50;99.90
15083;DHT22;7640;53.116;6.878;2023-04-24T01:23:27;11.40;99.90
15083;DHT22;7640;53.116;6.878;2023-04-24T01:25:56;11.40;99.90
15083;DHT22;7640;53.116;6.878;2023-04-24T01:28:25;11.40;99.90
15083;DHT22;7640;53.116;6.878;2023-04-24T01:30:54;11.40;99.90
15083;DHT22;7640;53.116;6.878;2023-04-24T01:33:23;11.40;99.90
15083;DHT22;7640;53.116;6.878;2023-04-24T01:35:52;11.40;99.90
15083;DHT22;7640;53.116;6.878;2023-04-24T01:38:20;11.40;99.90
15083;DHT22;7640;53.116;6.878;2023-04-24T01:40:51;11.40;99.90
15083;DHT22;7640;53.116;6.878;2023-04-24T01:43:20;11.40;99.90
15083;DHT22;7640;53.116;6.878;2023-04-24T01:45:50;11.40;99.90
15083;DHT22;7640;53.116;6.878;2023-04-24T01:48:19;11.40;99.90
15083;DHT22;7640;53.116;6.878;2023-04-24T01:50:47;11.40;99.90
15083;DHT22;7640;53.116;6.878;2023-04-24T01:53:16;11.40;99.90
15083;DHT22;7640;53.116;6.878;2023-04-24T01:55:47;11.40;99.90
15083;DHT22;7640;53.116;6.878;2023-04-24T01:58:20;11.40;99.90
15083;DHT22;7640;53.116;6.878;2023-04-24T02:00:49;11.40;99.90
15083;DHT22;7640;53.116;6.878;2023-04-24T02:03:18;11.40;99.90
15083;DHT22;7640;53.116;6.878;2023-04-24T02:05:50;11.40;99.90
15083;DHT22;7640;53.116;6.878;2023-04-24T02:08:19;11.40;99.90
15083;DHT22;7640;53.116;6.878;2023-04-24T02:10:47;11.30;99.90
15083;DHT22;7640;53.116;6.878;2023-04-24T02:13:16;11.30;99.90
15083;DHT22;7640;53.116;6.878;2023-04-24T02:15:49;11.30;99.90
15083;DHT22;7640;53.116;6.878;2023-04-24T02:18:17;11.30;99.90
15083;DHT22;7640;53.116;6.878;2023-04-24T02:20:46;11.30;99.90
15083;DHT22;7640;53.116;6.878;2023-04-24T02:23:14;11.30;99.90
15083;DHT22;7640;53.116;6.878;2023-04-24T02:25:43;11.30;99.90
15083;DHT22;7640;53.116;6.878;2023-04-24T02:28:11;11.30;99.90
15083;DHT22;7640;53.116;6.878;2023-04-24T02:30:40;11.30;99.90
15083;DHT22;7640;53.116;6.878;2023-04-24T02:33:10;11.30;99.90
15083;DHT22;7640;53.116;6.878;2023-04-24T02:35:39;11.40;99.90
15083;DHT22;7640;53.116;6.878;2023-04-24T02:38:07;11.40;99.90
15083;DHT22;7640;53.116;6.878;2023-04-24T02:40:36;11.40;99.90
15083;DHT22;7640;53.116;6.878;2023-04-24T02:43:05;11.40;99.90
15083;DHT22;7640;53.116;6.878;2023-04-24T02:45:34;11.40;99.90
15083;DHT22;7640;53.116;6.878;2023-04-24T02:48:03;11.40;99.90
15083;DHT22;7640;53.116;6.878;2023-04-24T02:50:35;11.30;99.90
15083;DHT22;7640;53.116;6.878;2023-04-24T02:53:04;11.30;99.90
15083;DHT22;7640;53.116;6.878;2023-04-24T02:55:33;11.30;99.90
15083;DHT22;7640;53.116;6.878;2023-04-24T02:58:03;11.30;99.90
15083;DHT22;7640;53.116;6.878;2023-04-24T03:00:33;11.30;99.90
15083;DHT22;7640;53.116;6.878;2023-04-24T03:03:03;11.30;99.90
15083;DHT22;7640;53.116;6.878;2023-04-24T03:05:39;11.20;99.90
15083;DHT22;7640;53.116;6.878;2023-04-24T03:08:09;11.20;99.90
15083;DHT22;7640;53.116;6.878;2023-04-24T03:10:38;11.20;99.90
15083;DHT22;7640;53.116;6.878;2023-04-24T03:13:08;11.20;99.90
15083;DHT22;7640;53.116;6.878;2023-04-24T03:15:37;11.20;99.90
15083;DHT22;7640;53.116;6.878;2023-04-24T03:18:06;11.20;99.90
15083;DHT22;7640;53.116;6.878;2023-04-24T03:20:40;11.20;99.90
15083;DHT22;7640;53.116;6.878;2023-04-24T03:23:11;11.20;99.90
15083;DHT22;7640;53.116;6.878;2023-04-24T03:25:41;10.80;99.90
15083;DHT22;7640;53.116;6.878;2023-04-24T03:28:11;11.20;99.90
15083;DHT22;7640;53.116;6.878;2023-04-24T03:30:40;11.20;99.90
15083;DHT22;7640;53.116;6.878;2023-04-24T03:33:14;11.20;99.90
15083;DHT22;7640;53.116;6.878;2023-04-24T03:35:45;11.10;99.90
15083;DHT22;7640;53.116;6.878;2023-04-24T03:38:16;11.10;99.90
15083;DHT22;7640;53.116;6.878;2023-04-24T03:40:51;11.10;99.90
15083;DHT22;7640;53.116;6.878;2023-04-24T03:43:23;11.10;99.90
15083;DHT22;7640;53.116;6.878;2023-04-24T03:45:54;11.00;99.90
15083;DHT22;7640;53.116;6.878;2023-04-24T03:48:24;11.10;99.90
15083;DHT22;7640;53.116;6.878;2023-04-24T03:50:57;11.10;99.90
15083;DHT22;7640;53.116;6.878;2023-04-24T03:53:26;11.10;99.90
15083;DHT22;7640;53.116;6.878;2023-04-24T03:55:59;11.00;99.90
15083;DHT22;7640;53.116;6.878;2023-04-24T03:58:34;11.00;99.90
15083;DHT22;7640;53.116;6.878;2023-04-24T04:01:11;11.00;99.90
15083;DHT22;7640;53.116;6.878;2023-04-24T04:03:43;11.00;99.90
15083;DHT22;7640;53.116;6.878;2023-04-24T04:06:15;11.00;99.90
15083;DHT22;7640;53.116;6.878;2023-04-24T04:08:46;11.00;99.90
15083;DHT22;7640;53.116;6.878;2023-04-24T04:11:16;11.00;99.90
15083;DHT22;7640;53.116;6.878;2023-04-24T04:13:46;11.00;99.90
15083;DHT22;7640;53.116;6.878;2023-04-24T04:16:22;11.00;99.90
15083;DHT22;7640;53.116;6.878;2023-04-24T04:18:52;11.00;99.90
15083;DHT22;7640;53.116;6.878;2023-04-24T04:21:26;11.00;99.90
15083;DHT22;7640;53.116;6.878;2023-04-24T04:23:56;10.90;99.90
15083;DHT22;7640;53.116;6.878;2023-04-24T04:26:28;10.90;99.90
15083;DHT22;7640;53.116;6.878;2023-04-24T04:28:59;10.90;99.90
15083;DHT22;7640;53.116;6.878;2023-04-24T04:31:31;10.90;99.90
15083;DHT22;7640;53.116;6.878;2023-04-24T04:34:01;10.90;99.90
15083;DHT22;7640;53.116;6.878;2023-04-24T04:36:33;10.90;99.90
15083;DHT22;7640;53.116;6.878;2023-04-24T04:39:06;10.90;99.90
15083;DHT22;7640;53.116;6.878;2023-04-24T04:41:38;10.80;99.90
15083;DHT22;7640;53.116;6.878;2023-04-24T04:44:09;10.90;99.90
15083;DHT22;7640;53.116;6.878;2023-04-24T04:46:41;10.80;99.90
15083;DHT22;7640;53.116;6.878;2023-04-24T04:49:10;10.90;99.90
15083;DHT22;7640;53.116;6.878;2023-04-24T04:51:46;10.90;99.90
15083;DHT22;7640;53.116;6.878;2023-04-24T04:54:16;10.90;99.90
15083;DHT22;7640;53.116;6.878;2023-04-24T04:56:47;10.90;99.90
15083;DHT22;7640;53.116;6.878;2023-04-24T04:59:18;10.90;99.90
15083;DHT22;7640;53.116;6.878;2023-04-24T05:01:48;10.90;99.90
15083;DHT22;7640;53.116;6.878;2023-04-24T05:04:18;10.90;99.90
15083;DHT22;7640;53.116;6.878;2023-04-24T05:06:56;11.00;99.90
15083;DHT22;7640;53.116;6.878;2023-04-24T05:09:25;10.90;99.90
15083;DHT22;7640;53.116;6.878;2023-04-24T05:11:57;10.90;99.90
15083;DHT22;7640;53.116;6.878;2023-04-24T05:14:26;10.90;99.90
15083;DHT22;7640;53.116;6.878;2023-04-24T05:16:57;10.90;99.90
15083;DHT22;7640;53.116;6.878;2023-04-24T05:19:28;10.80;99.90
15083;DHT22;7640;53.116;6.878;2023-04-24T05:22:02;10.80;99.90
15083;DHT22;7640;53.116;6.878;2023-04-24T05:24:38;10.80;99.90
15083;DHT22;7640;53.116;6.878;2023-04-24T05:27:09;10.80;99.90
15083;DHT22;7640;53.116;6.878;2023-04-24T05:29:43;10.80;99.90
15083;DHT22;7640;53.116;6.878;2023-04-24T05:32:15;10.90;99.90
15083;DHT22;7640;53.116;6.878;2023-04-24T05:34:47;10.90;99.90
15083;DHT22;7640;53.116;6.878;2023-04-24T05:37:33;10.90;99.90
15083;DHT22;7640;53.116;6.878;2023-04-24T05:40:07;10.80;99.90
15083;DHT22;7640;53.116;6.878;2023-04-24T05:42:39;10.80;99.90
15083;DHT22;7640;53.116;6.878;2023-04-24T05:45:15;10.90;99.90
15083;DHT22;7640;53.116;6.878;2023-04-24T05:48:03;10.80;99.90
15083;DHT22;7640;53.116;6.878;2023-04-24T05:50:40;10.80;99.90
15083;DHT22;7640;53.116;6.878;2023-04-24T05:53:19;10.80;99.90
15083;DHT22;7640;53.116;6.878;2023-04-24T05:55:57;10.80;99.90
15083;DHT22;7640;53.116;6.878;2023-04-24T05:58:30;10.80;99.90
15083;DHT22;7640;53.116;6.878;2023-04-24T06:01:06;10.80;99.90
15083;DHT22;7640;53.116;6.878;2023-04-24T06:03:37;10.80;99.90
15083;DHT22;7640;53.116;6.878;2023-04-24T06:06:16;10.80;99.90
15083;DHT22;7640;53.116;6.878;2023-04-24T06:09:11;10.80;99.90
15083;DHT22;7640;53.116;6.878;2023-04-24T06:11:43;10.80;99.90
15083;DHT22;7640;53.116;6.878;2023-04-24T06:14:25;10.80;99.90
15083;DHT22;7640;53.116;6.878;2023-04-24T06:17:06;10.90;99.90
15083;DHT22;7640;53.116;6.878;2023-04-24T06:19:45;10.90;99.90
15083;DHT22;7640;53.116;6.878;2023-04-24T06:22:27;10.90;99.90
15083;DHT22;7640;53.116;6.878;2023-04-24T06:25:05;11.00;99.90
15083;DHT22;7640;53.116;6.878;2023-04-24T06:27:52;11.00;99.90
15083;DHT22;7640;53.116;6.878;2023-04-24T06:30:30;11.00;99.90
15083;DHT22;7640;53.116;6.878;2023-04-24T06:33:01;11.00;99.90
15083;DHT22;7640;53.116;6.878;2023-04-24T06:35:51;11.00;99.90
15083;DHT22;7640;53.116;6.878;2023-04-24T06:38:40;11.10;99.90
15083;DHT22;7640;53.116;6.878;2023-04-24T06:41:14;11.00;99.90
15083;DHT22;7640;53.116;6.878;2023-04-24T06:43:56;11.10;99.90
15083;DHT22;7640;53.116;6.878;2023-04-24T06:46:28;11.10;99.90
15083;DHT22;7640;53.116;6.878;2023-04-24T06:49:01;11.10;99.90
15083;DHT22;7640;53.116;6.878;2023-04-24T06:51:34;11.10;99.90
15083;DHT22;7640;53.116;6.878;2023-04-24T06:54:07;11.10;99.90
15083;DHT22;7640;53.116;6.878;2023-04-24T06:56:38;11.10;99.90
15083;DHT22;7640;53.116;6.878;2023-04-24T06:59:07;11.00;99.90
15083;DHT22;7640;53.116;6.878;2023-04-24T07:01:37;11.10;99.90
15083;DHT22;7640;53.116;6.878;2023-04-24T07:04:10;11.10;99.90
15083;DHT22;7640;53.116;6.878;2023-04-24T07:06:40;11.10;99.90
15083;DHT22;7640;53.116;6.878;2023-04-24T07:09:09;11.10;99.90
15083;DHT22;7640;53.116;6.878;2023-04-24T07:11:42;11.10;99.90
15083;DHT22;7640;53.116;6.878;2023-04-24T07:14:36;11.10;99.90
15083;DHT22;7640;53.116;6.878;2023-04-24T07:17:05;11.10;99.90
15083;DHT22;7640;53.116;6.878;2023-04-24T07:19:35;11.10;99.90
15083;DHT22;7640;53.116;6.878;2023-04-24T07:22:04;11.20;99.90
15083;DHT22;7640;53.116;6.878;2023-04-24T07:24:39;11.20;99.90
15083;DHT22;7640;53.116;6.878;2023-04-24T07:27:10;11.20;99.90
15083;DHT22;7640;53.116;6.878;2023-04-24T07:29:42;11.20;99.90
15083;DHT22;7640;53.116;6.878;2023-04-24T07:32:13;11.20;99.90
15083;DHT22;7640;53.116;6.878;2023-04-24T07:34:42;11.30;99.90
15083;DHT22;7640;53.116;6.878;2023-04-24T07:37:12;11.30;99.90
15083;DHT22;7640;53.116;6.878;2023-04-24T07:39:41;11.30;99.90
15083;DHT22;7640;53.116;6.878;2023-04-24T07:42:18;11.30;99.90
15083;DHT22;7640;53.116;6.878;2023-04-24T07:44:47;11.30;99.90
15083;DHT22;7640;53.116;6.878;2023-04-24T07:47:27;11.30;99.90
15083;DHT22;7640;53.116;6.878;2023-04-24T07:49:56;11.30;99.90
15083;DHT22;7640;53.116;6.878;2023-04-24T07:52:26;11.20;99.90
15083;DHT22;7640;53.116;6.878;2023-04-24T07:55:01;11.20;99.90
15083;DHT22;7640;53.116;6.878;2023-04-24T07:57:35;11.20;99.90
15083;DHT22;7640;53.116;6.878;2023-04-24T08:00:06;11.10;99.90
15083;DHT22;7640;53.116;6.878;2023-04-24T08:02:37;11.10;99.90
15083;DHT22;7640;53.116;6.878;2023-04-24T08:05:07;11.10;99.90
15083;DHT22;7640;53.116;6.878;2023-04-24T08:07:39;11.00;99.90
15083;DHT22;7640;53.116;6.878;2023-04-24T08:10:10;11.00;99.90
15083;DHT22;7640;53.116;6.878;2023-04-24T08:12:42;11.00;99.90
15083;DHT22;7640;53.116;6.878;2023-04-24T08:15:13;11.00;99.90
15083;DHT22;7640;53.116;6.878;2023-04-24T08:17:44;10.90;99.90
15083;DHT22;7640;53.116;6.878;2023-04-24T08:20:13;10.90;99.90
15083;DHT22;7640;53.116;6.878;2023-04-24T08:22:44;10.90;99.90
15083;DHT22;7640;53.116;6.878;2023-04-24T08:25:17;10.80;99.90
15083;DHT22;7640;53.116;6.878;2023-04-24T08:27:48;10.80;99.90
15083;DHT22;7640;53.116;6.878;2023-04-24T08:30:21;10.80;99.90
15083;DHT22;7640;53.116;6.878;2023-04-24T08:32:59;10.80;99.90
15083;DHT22;7640;53.116;6.878;2023-04-24T08:35:29;10.80;99.90
15083;DHT22;7640;53.116;6.878;2023-04-24T08:37:59;10.70;99.90
15083;DHT22;7640;53.116;6.878;2023-04-24T08:40:34;10.70;99.90
15083;DHT22;7640;53.116;6.878;2023-04-24T08:43:06;10.60;99.90
15083;DHT22;7640;53.116;6.878;2023-04-24T08:45:36;10.60;99.90
15083;DHT22;7640;53.116;6.878;2023-04-24T08:48:06;10.70;99.90
15083;DHT22;7640;53.116;6.878;2023-04-24T08:50:46;10.60;99.90
15083;DHT22;7640;53.116;6.878;2023-04-24T08:53:18;10.60;99.90
15083;DHT22;7640;53.116;6.878;2023-04-24T08:55:50;10.60;99.90
15083;DHT22;7640;53.116;6.878;2023-04-24T08:58:21;10.60;99.90
15083;DHT22;7640;53.116;6.878;2023-04-24T09:00:55;10.60;99.90
15083;DHT22;7640;53.116;6.878;2023-04-24T09:03:26;10.50;99.90
15083;DHT22;7640;53.116;6.878;2023-04-24T09:05:57;10.50;99.90
15083;DHT22;7640;53.116;6.878;2023-04-24T09:08:29;10.40;99.90
15083;DHT22;7640;53.116;6.878;2023-04-24T09:11:00;10.40;99.90
15083;DHT22;7640;53.116;6.878;2023-04-24T09:13:32;10.40;99.90
15083;DHT22;7640;53.116;6.878;2023-04-24T09:16:02;10.40;99.90
15083;DHT22;7640;53.116;6.878;2023-04-24T09:18:33;10.40;99.90
15083;DHT22;7640;53.116;6.878;2023-04-24T09:21:06;10.30;99.90
15083;DHT22;7640;53.116;6.878;2023-04-24T09:23:40;10.30;99.90
15083;DHT22;7640;53.116;6.878;2023-04-24T09:26:13;10.30;99.90
15083;DHT22;7640;53.116;6.878;2023-04-24T09:28:45;10.20;99.90
15083;DHT22;7640;53.116;6.878;2023-04-24T09:31:17;10.10;99.90
15083;DHT22;7640;53.116;6.878;2023-04-24T09:33:58;10.10;99.90
15083;DHT22;7640;53.116;6.878;2023-04-24T09:36:36;10.10;99.90
15083;DHT22;7640;53.116;6.878;2023-04-24T09:39:09;10.10;99.90
15083;DHT22;7640;53.116;6.878;2023-04-24T09:41:44;10.00;99.90
15083;DHT22;7640;53.116;6.878;2023-04-24T09:44:16;10.00;99.90
15083;DHT22;7640;53.116;6.878;2023-04-24T09:46:51;10.00;99.90
15083;DHT22;7640;53.116;6.878;2023-04-24T09:49:24;10.00;99.90
15083;DHT22;7640;53.116;6.878;2023-04-24T09:52:04;10.00;99.90
15083;DHT22;7640;53.116;6.878;2023-04-24T09:54:35;9.90;99.90
15083;DHT22;7640;53.116;6.878;2023-04-24T09:57:08;10.00;99.90
15083;DHT22;7640;53.116;6.878;2023-04-24T09:59:46;10.00;99.90
15083;DHT22;7640;53.116;6.878;2023-04-24T10:02:19;10.00;99.90
15083;DHT22;7640;53.116;6.878;2023-04-24T10:04:55;10.00;99.90
15083;DHT22;7640;53.116;6.878;2023-04-24T10:07:27;10.00;99.90
15083;DHT22;7640;53.116;6.878;2023-04-24T10:09:57;9.90;99.90
15083;DHT22;7640;53.116;6.878;2023-04-24T10:12:29;10.00;99.90
15083;DHT22;7640;53.116;6.878;2023-04-24T10:15:04;9.90;99.90
15083;DHT22;7640;53.116;6.878;2023-04-24T10:17:36;9.90;99.90
15083;DHT22;7640;53.116;6.878;2023-04-24T10:20:08;9.90;99.90
15083;DHT22;7640;53.116;6.878;2023-04-24T10:22:38;9.90;99.90
15083;DHT22;7640;53.116;6.878;2023-04-24T10:25:09;9.80;99.90
15083;DHT22;7640;53.116;6.878;2023-04-24T10:27:39;9.80;99.90
15083;DHT22;7640;53.116;6.878;2023-04-24T10:30:12;9.80;99.90
15083;DHT22;7640;53.116;6.878;2023-04-24T10:32:49;9.80;99.90
15083;DHT22;7640;53.116;6.878;2023-04-24T10:35:20;9.80;99.90
15083;DHT22;7640;53.116;6.878;2023-04-24T10:37:56;9.90;99.90
15083;DHT22;7640;53.116;6.878;2023-04-24T10:40:29;9.90;99.90
15083;DHT22;7640;53.116;6.878;2023-04-24T10:43:02;10.00;99.90
15083;DHT22;7640;53.116;6.878;2023-04-24T10:45:37;10.00;99.90
15083;DHT22;7640;53.116;6.878;2023-04-24T10:48:08;10.10;99.90
15083;DHT22;7640;53.116;6.878;2023-04-24T10:50:45;10.10;99.90
15083;DHT22;7640;53.116;6.878;2023-04-24T10:53:17;10.20;99.90
15083;DHT22;7640;53.116;6.878;2023-04-24T10:55:47;10.20;99.90
15083;DHT22;7640;53.116;6.878;2023-04-24T10:58:23;10.20;99.90
15083;DHT22;7640;53.116;6.878;2023-04-24T11:00:58;10.20;99.90
15083;DHT22;7640;53.116;6.878;2023-04-24T11:03:30;10.10;99.90
15083;DHT22;7640;53.116;6.878;2023-04-24T11:06:02;10.10;99.90
15083;DHT22;7640;53.116;6.878;2023-04-24T11:08:38;10.10;99.90
15083;DHT22;7640;53.116;6.878;2023-04-24T11:11:13;10.10;99.90
15083;DHT22;7640;53.116;6.878;2023-04-24T11:14:06;10.10;99.90
15083;DHT22;7640;53.116;6.878;2023-04-24T11:16:43;10.10;99.90
15083;DHT22;7640;53.116;6.878;2023-04-24T11:19:21;10.10;99.90
15083;DHT22;7640;53.116;6.878;2023-04-24T11:21:59;10.20;99.90
15083;DHT22;7640;53.116;6.878;2023-04-24T11:24:38;10.20;99.90
15083;DHT22;7640;53.116;6.878;2023-04-24T11:27:12;10.20;99.90
15083;DHT22;7640;53.116;6.878;2023-04-24T11:29:44;10.30;99.90
15083;DHT22;7640;53.116;6.878;2023-04-24T11:32:25;10.30;99.90
15083;DHT22;7640;53.116;6.878;2023-04-24T11:34:58;10.30;99.90
15083;DHT22;7640;53.116;6.878;2023-04-24T11:37:33;10.30;99.90
15083;DHT22;7640;53.116;6.878;2023-04-24T11:40:07;10.20;99.90
15083;DHT22;7640;53.116;6.878;2023-04-24T11:42:40;10.20;99.90
15083;DHT22;7640;53.116;6.878;2023-04-24T11:45:13;10.20;99.90
15083;DHT22;7640;53.116;6.878;2023-04-24T11:47:47;10.20;99.90
15083;DHT22;7640;53.116;6.878;2023-04-24T11:50:19;10.30;99.90
15083;DHT22;7640;53.116;6.878;2023-04-24T11:52:51;10.30;99.90
15083;DHT22;7640;53.116;6.878;2023-04-24T11:55:25;10.40;99.90
15083;DHT22;7640;53.116;6.878;2023-04-24T11:57:57;10.40;99.90
15083;DHT22;7640;53.116;6.878;2023-04-24T12:00:31;10.40;99.90
15083;DHT22;7640;53.116;6.878;2023-04-24T12:03:07;10.40;99.90
15083;DHT22;7640;53.116;6.878;2023-04-24T12:05:39;10.50;99.90
15083;DHT22;7640;53.116;6.878;2023-04-24T12:08:09;10.40;99.90
15083;DHT22;7640;53.116;6.878;2023-04-24T12:10:38;10.40;99.90
15083;DHT22;7640;53.116;6.878;2023-04-24T12:13:09;10.40;99.90
15083;DHT22;7640;53.116;6.878;2023-04-24T12:15:41;10.50;99.90
15083;DHT22;7640;53.116;6.878;2023-04-24T12:18:13;10.60;99.90
15083;DHT22;7640;53.116;6.878;2023-04-24T12:20:44;10.70;99.90
15083;DHT22;7640;53.116;6.878;2023-04-24T12:23:16;10.80;99.90
15083;DHT22;7640;53.116;6.878;2023-04-24T12:26:04;10.80;99.90
15083;DHT22;7640;53.116;6.878;2023-04-24T12:28:37;10.70;99.90
15083;DHT22;7640;53.116;6.878;2023-04-24T12:31:15;10.70;99.90
15083;DHT22;7640;53.116;6.878;2023-04-24T12:33:46;10.60;99.90
15083;DHT22;7640;53.116;6.878;2023-04-24T12:36:16;10.50;99.90
15083;DHT22;7640;53.116;6.878;2023-04-24T12:38:53;10.50;99.90
15083;DHT22;7640;53.116;6.878;2023-04-24T12:41:23;10.40;99.90
15083;DHT22;7640;53.116;6.878;2023-04-24T12:44:02;10.30;99.90
15083;DHT22;7640;53.116;6.878;2023-04-24T12:46:34;10.30;99.90
15083;DHT22;7640;53.116;6.878;2023-04-24T12:49:13;10.30;99.90
15083;DHT22;7640;53.116;6.878;2023-04-24T12:51:43;10.30;99.90
15083;DHT22;7640;53.116;6.878;2023-04-24T12:54:22;10.30;99.90
15083;DHT22;7640;53.116;6.878;2023-04-24T12:56:53;10.40;99.90
15083;DHT22;7640;53.116;6.878;2023-04-24T12:59:30;10.50;99.90
15083;DHT22;7640;53.116;6.878;2023-04-24T13:01:59;10.60;99.90
15083;DHT22;7640;53.116;6.878;2023-04-24T13:04:36;10.70;99.90
15083;DHT22;7640;53.116;6.878;2023-04-24T13:07:05;10.80;99.90
15083;DHT22;7640;53.116;6.878;2023-04-24T13:09:36;10.90;99.90
15083;DHT22;7640;53.116;6.878;2023-04-24T13:12:05;10.90;99.90
15083;DHT22;7640;53.116;6.878;2023-04-24T13:14:36;10.90;99.90
15083;DHT22;7640;53.116;6.878;2023-04-24T13:17:06;10.90;99.90
15083;DHT22;7640;53.116;6.878;2023-04-24T13:19:39;11.00;99.90
15083;DHT22;7640;53.116;6.878;2023-04-24T13:22:13;11.00;99.90
15083;DHT22;7640;53.116;6.878;2023-04-24T13:24:42;10.90;99.90
15083;DHT22;7640;53.116;6.878;2023-04-24T13:27:13;10.90;99.90
15083;DHT22;7640;53.116;6.878;2023-04-24T13:29:44;10.90;99.90
15083;DHT22;7640;53.116;6.878;2023-04-24T13:32:14;10.90;99.90
15083;DHT22;7640;53.116;6.878;2023-04-24T13:34:45;10.90;99.90
15083;DHT22;7640;53.116;6.878;2023-04-24T13:37:16;10.80;99.90
15083;DHT22;7640;53.116;6.878;2023-04-24T13:39:46;10.70;99.90
15083;DHT22;7640;53.116;6.878;2023-04-24T13:42:15;10.70;99.90
15083;DHT22;7640;53.116;6.878;2023-04-24T13:44:45;10.60;99.90
15083;DHT22;7640;53.116;6.878;2023-04-24T13:47:15;10.50;99.90
15083;DHT22;7640;53.116;6.878;2023-04-24T13:49:50;10.50;99.90
15083;DHT22;7640;53.116;6.878;2023-04-24T13:52:22;10.60;99.90
15083;DHT22;7640;53.116;6.878;2023-04-24T13:54:51;10.60;99.90
15083;DHT22;7640;53.116;6.878;2023-04-24T13:57:25;10.60;99.90
15083;DHT22;7640;53.116;6.878;2023-04-24T13:59:57;10.60;99.90
15083;DHT22;7640;53.116;6.878;2023-04-24T14:02:30;10.60;99.90
15083;DHT22;7640;53.116;6.878;2023-04-24T14:05:01;10.60;99.90
15083;DHT22;7640;53.116;6.878;2023-04-24T14:07:32;10.60;99.90
15083;DHT22;7640;53.116;6.878;2023-04-24T14:10:02;10.60;99.90
15083;DHT22;7640;53.116;6.878;2023-04-24T14:12:31;10.60;99.90
15083;DHT22;7640;53.116;6.878;2023-04-24T14:15:00;10.60;99.90
15083;DHT22;7640;53.116;6.878;2023-04-24T14:17:29;10.50;99.90
15083;DHT22;7640;53.116;6.878;2023-04-24T14:19:58;10.50;99.90
15083;DHT22;7640;53.116;6.878;2023-04-24T14:22:34;10.50;99.90
15083;DHT22;7640;53.116;6.878;2023-04-24T14:25:04;10.50;99.90
15083;DHT22;7640;53.116;6.878;2023-04-24T14:27:34;10.50;99.90
15083;DHT22;7640;53.116;6.878;2023-04-24T14:30:06;10.50;99.90
15083;DHT22;7640;53.116;6.878;2023-04-24T14:32:36;10.40;99.90
15083;DHT22;7640;53.116;6.878;2023-04-24T14:35:07;10.40;99.90
15083;DHT22;7640;53.116;6.878;2023-04-24T14:37:42;10.40;99.90
15083;DHT22;7640;53.116;6.878;2023-04-24T14:40:11;10.30;99.90
15083;DHT22;7640;53.116;6.878;2023-04-24T14:43:01;10.20;99.90
15083;DHT22;7640;53.116;6.878;2023-04-24T14:45:31;10.00;99.90
15083;DHT22;7640;53.116;6.878;2023-04-24T14:48:01;9.90;99.90
15083;DHT22;7640;53.116;6.878;2023-04-24T14:50:32;9.80;99.90
15083;DHT22;7640;53.116;6.878;2023-04-24T14:53:02;9.80;99.90
15083;DHT22;7640;53.116;6.878;2023-04-24T14:55:33;9.70;99.90
15083;DHT22;7640;53.116;6.878;2023-04-24T14:58:04;9.70;99.90
15083;DHT22;7640;53.116;6.878;2023-04-24T15:00:37;9.70;99.90
15083;DHT22;7640;53.116;6.878;2023-04-24T15:03:07;9.70;99.90
15083;DHT22;7640;53.116;6.878;2023-04-24T15:05:39;9.70;99.90
15083;DHT22;7640;53.116;6.878;2023-04-24T15:08:09;9.80;99.90
15083;DHT22;7640;53.116;6.878;2023-04-24T15:10:39;9.90;99.90
15083;DHT22;7640;53.116;6.878;2023-04-24T15:13:09;10.00;99.90
15083;DHT22;7640;53.116;6.878;2023-04-24T15:15:40;10.10;99.90
15083;DHT22;7640;53.116;6.878;2023-04-24T15:18:09;10.20;99.90
15083;DHT22;7640;53.116;6.878;2023-04-24T15:20:40;10.30;99.90
15083;DHT22;7640;53.116;6.878;2023-04-24T15:23:11;10.30;99.90
15083;DHT22;7640;53.116;6.878;2023-04-24T15:25:40;10.30;99.90
15083;DHT22;7640;53.116;6.878;2023-04-24T15:28:10;10.30;99.90
15083;DHT22;7640;53.116;6.878;2023-04-24T15:30:40;10.30;99.90
15083;DHT22;7640;53.116;6.878;2023-04-24T15:33:09;10.20;99.90
15083;DHT22;7640;53.116;6.878;2023-04-24T15:35:40;10.20;99.90
15083;DHT22;7640;53.116;6.878;2023-04-24T15:38:10;10.20;99.90
15083;DHT22;7640;53.116;6.878;2023-04-24T15:40:38;10.20;99.90
15083;DHT22;7640;53.116;6.878;2023-04-24T15:43:07;10.20;99.90
15083;DHT22;7640;53.116;6.878;2023-04-24T15:45:40;10.20;99.90
15083;DHT22;7640;53.116;6.878;2023-04-24T15:48:09;10.20;99.90
15083;DHT22;7640;53.116;6.878;2023-04-24T15:50:39;10.20;99.90
15083;DHT22;7640;53.116;6.878;2023-04-24T15:53:09;10.20;99.90
15083;DHT22;7640;53.116;6.878;2023-04-24T15:55:38;10.20;99.90
15083;DHT22;7640;53.116;6.878;2023-04-24T15:58:07;10.20;99.90
15083;DHT22;7640;53.116;6.878;2023-04-24T16:00:35;10.20;99.90
15083;DHT22;7640;53.116;6.878;2023-04-24T16:03:04;10.20;99.90
15083;DHT22;7640;53.116;6.878;2023-04-24T16:05:35;10.20;99.90
15083;DHT22;7640;53.116;6.878;2023-04-24T16:08:06;10.20;99.90
15083;DHT22;7640;53.116;6.878;2023-04-24T16:10:34;10.10;99.90
15083;DHT22;7640;53.116;6.878;2023-04-24T16:13:03;10.10;99.90
15083;DHT22;7640;53.116;6.878;2023-04-24T16:15:33;10.00;99.90
15083;DHT22;7640;53.116;6.878;2023-04-24T16:18:04;9.90;99.90